Time;durP1;ratioP1;P1;durP2;ratioP2;P2;SDS_P1;SDS_P2;PMS_P1;PMS_P2;Temp;Humidity;BMP_temperature;BMP_pressure;BME280_temperature;BME280_humidity;BME280_pressure;Samples;Min_cycle;Max_cycle;Signal;HPM_P1;HPM_P2
2022/10/07 00:02:09;;;;;;;;;;;10.10;99.90;;;;;;5093124;28;864;-73
2022/10/07 00:04:35;;;;;;;;;;;10.00;99.90;;;;;;5092827;28;1004;-72
2022/10/07 00:07:01;;;;;;;;;;;10.10;99.90;;;;;;5092252;28;888;-73
2022/10/07 00:09:27;;;;;;;;;;;10.00;99.90;;;;;;5068856;28;1312;-72
2022/10/07 00:11:53;;;;;;;;;;;10.00;99.90;;;;;;5092565;28;849;-73
2022/10/07 00:14:19;;;;;;;;;;;10.00;99.90;;;;;;5092062;28;1551;-72
2022/10/07 00:16:44;;;;;;;;;;;9.90;99.90;;;;;;5092492;28;1910;-73
2022/10/07 00:19:11;;;;;;;;;;;10.00;99.90;;;;;;5073928;28;845;-73
2022/10/07 00:21:38;;;;;;;;;;;10.00;99.90;;;;;;5093046;28;1085;-73
2022/10/07 00:24:04;;;;;;;;;;;10.00;99.90;;;;;;5092564;28;984;-73
2022/10/07 00:26:31;;;;;;;;;;;10.00;99.90;;;;;;5091511;28;1165;-72
2022/10/07 00:28:57;;;;;;;;;;;10.00;99.90;;;;;;5074908;28;836;-72
2022/10/07 00:31:24;;;;;;;;;;;9.90;99.90;;;;;;5075007;28;1032;-73
2022/10/07 00:33:50;;;;;;;;;;;10.00;99.90;;;;;;5091675;28;1107;-73
2022/10/07 00:36:18;;;;;;;;;;;10.00;99.90;;;;;;5074448;28;1906;-72
2022/10/07 00:38:48;;;;;;;;;;;10.00;99.90;;;;;;5092396;28;1103;-73
2022/10/07 00:41:16;;;;;;;;;;;10.00;99.90;;;;;;5073624;28;1907;-72
2022/10/07 00:43:41;;;;;;;;;;;10.10;99.90;;;;;;5071358;28;1302;-72
2022/10/07 00:46:14;;;;;;;;;;;10.10;99.90;;;;;;5054772;28;969;-73
2022/10/07 00:48:40;;;;;;;;;;;10.00;99.90;;;;;;5071427;28;1035;-72
2022/10/07 00:51:06;;;;;;;;;;;10.00;99.90;;;;;;5072365;28;1071;-72
2022/10/07 00:53:34;;;;;;;;;;;10.00;99.90;;;;;;5067066;28;1202;-72
2022/10/07 00:56:00;;;;;;;;;;;9.90;99.90;;;;;;5091331;28;1914;-72
2022/10/07 00:58:27;;;;;;;;;;;9.90;99.90;;;;;;5092540;28;1276;-72
2022/10/07 01:00:53;;;;;;;;;;;9.80;99.90;;;;;;5092402;28;1207;-72
2022/10/07 01:03:19;;;;;;;;;;;9.80;99.90;;;;;;5056352;28;1816;-72
2022/10/07 01:05:44;;;;;;;;;;;9.70;99.90;;;;;;5074046;28;1044;-72
2022/10/07 01:08:11;;;;;;;;;;;9.70;99.90;;;;;;5092669;28;976;-72
2022/10/07 01:10:45;;;;;;;;;;;9.70;99.90;;;;;;5090923;28;1667;-72
2022/10/07 01:13:15;;;;;;;;;;;9.60;99.90;;;;;;5074071;28;1231;-72
2022/10/07 01:15:51;;;;;;;;;;;9.60;99.90;;;;;;5091249;28;1914;-72
2022/10/07 01:18:21;;;;;;;;;;;9.60;99.90;;;;;;5073703;28;965;-72
2022/10/07 01:20:48;;;;;;;;;;;9.60;99.90;;;;;;5089762;28;1209;-72
2022/10/07 01:23:35;;;;;;;;;;;9.60;99.90;;;;;;5082840;28;1235;-72
2022/10/07 01:26:03;;;;;;;;;;;9.60;99.90;;;;;;5048403;28;1292;-72
2022/10/07 01:28:39;;;;;;;;;;;9.60;99.90;;;;;;5068222;28;1271;-72
2022/10/07 01:31:08;;;;;;;;;;;9.70;99.90;;;;;;5085419;28;1254;-72
2022/10/07 01:33:37;;;;;;;;;;;9.70;99.90;;;;;;5067756;28;1287;-72
2022/10/07 01:36:05;;;;;;;;;;;9.70;99.90;;;;;;5075706;28;1914;-72
2022/10/07 01:38:32;;;;;;;;;;;9.70;99.90;;;;;;5075152;28;1162;-72
2022/10/07 01:41:03;;;;;;;;;;;9.70;99.90;;;;;;5066505;28;1267;-72
2022/10/07 01:43:30;;;;;;;;;;;9.70;99.90;;;;;;5058819;28;1600;-72
2022/10/07 01:45:56;;;;;;;;;;;9.70;99.90;;;;;;5094854;28;1134;-72
2022/10/07 01:48:22;;;;;;;;;;;9.60;99.90;;;;;;5077229;28;1130;-72
2022/10/07 01:50:49;;;;;;;;;;;9.60;99.90;;;;;;5076432;28;1088;-72
2022/10/07 01:53:16;;;;;;;;;;;9.60;99.90;;;;;;5073767;28;1263;-72
2022/10/07 01:55:45;;;;;;;;;;;9.60;99.90;;;;;;5088761;28;1917;-72
2022/10/07 01:58:20;;;;;;;;;;;9.60;99.90;;;;;;5076891;28;1070;-72
2022/10/07 02:00:47;;;;;;;;;;;9.60;99.90;;;;;;5095091;28;829;-72
2022/10/07 02:03:26;;;;;;;;;;;9.50;99.90;;;;;;5094580;28;1106;-72
2022/10/07 02:05:56;;;;;;;;;;;9.50;99.90;;;;;;5059574;28;1027;-72
2022/10/07 02:08:27;;;;;;;;;;;9.50;99.90;;;;;;5093336;28;1604;-72
2022/10/07 02:11:03;;;;;;;;;;;9.50;99.90;;;;;;5072146;28;1664;-72
2022/10/07 02:13:35;;;;;;;;;;;9.50;99.90;;;;;;5072447;28;1027;-72
2022/10/07 02:16:01;;;;;;;;;;;9.50;99.90;;;;;;5053328;28;1918;-72
2022/10/07 02:18:30;;;;;;;;;;;9.50;99.90;;;;;;5036368;28;1502;-72
2022/10/07 02:20:56;;;;;;;;;;;9.50;99.90;;;;;;5057581;28;1198;-72
2022/10/07 02:23:22;;;;;;;;;;;9.60;99.90;;;;;;5073536;28;978;-72
2022/10/07 02:25:49;;;;;;;;;;;9.60;99.90;;;;;;5073819;28;1074;-72
2022/10/07 02:28:18;;;;;;;;;;;9.60;99.90;;;;;;5056322;28;1032;-72
2022/10/07 02:30:46;;;;;;;;;;;9.60;99.90;;;;;;5069337;28;1233;-72
2022/10/07 02:33:12;;;;;;;;;;;9.60;99.90;;;;;;5055780;28;794;-73
2022/10/07 02:35:41;;;;;;;;;;;9.60;99.90;;;;;;5073305;28;1906;-72
2022/10/07 02:38:09;;;;;;;;;;;9.60;99.90;;;;;;5073380;28;901;-71
2022/10/07 02:40:38;;;;;;;;;;;9.60;99.90;;;;;;5071842;28;1202;-72
2022/10/07 02:43:10;;;;;;;;;;;9.70;99.90;;;;;;5073149;28;969;-72
2022/10/07 02:45:39;;;;;;;;;;;9.60;99.90;;;;;;5072721;28;1628;-72
2022/10/07 02:48:17;;;;;;;;;;;9.60;99.90;;;;;;5067903;28;1087;-72
2022/10/07 02:50:44;;;;;;;;;;;9.70;99.90;;;;;;5053102;28;1012;-72
2022/10/07 02:53:11;;;;;;;;;;;9.60;99.90;;;;;;5065969;28;1216;-72
2022/10/07 02:55:37;;;;;;;;;;;9.70;99.90;;;;;;5053140;28;1910;-72
2022/10/07 02:58:05;;;;;;;;;;;9.70;99.90;;;;;;5070355;28;1147;-72
2022/10/07 03:00:34;;;;;;;;;;;9.70;99.90;;;;;;5072777;28;1155;-73
2022/10/07 03:03:01;;;;;;;;;;;9.70;99.90;;;;;;5071636;28;924;-72
2022/10/07 03:05:36;;;;;;;;;;;9.70;99.90;;;;;;5069120;28;1150;-72
2022/10/07 03:08:06;;;;;;;;;;;9.70;99.90;;;;;;5051828;28;1024;-72
2022/10/07 03:10:31;;;;;;;;;;;9.70;99.90;;;;;;5070307;28;1615;-72
2022/10/07 03:12:57;;;;;;;;;;;9.70;99.90;;;;;;5072721;28;1147;-72
2022/10/07 03:15:24;;;;;;;;;;;9.70;99.90;;;;;;5083208;28;1918;-72
2022/10/07 03:17:50;;;;;;;;;;;9.70;99.90;;;;;;5058659;28;1985;-72
2022/10/07 03:20:16;;;;;;;;;;;9.70;99.90;;;;;;5075795;28;972;-72
2022/10/07 03:22:43;;;;;;;;;;;9.70;99.90;;;;;;5074317;28;1205;-72
2022/10/07 03:25:10;;;;;;;;;;;9.70;99.90;;;;;;5075091;28;1008;-72
2022/10/07 03:27:37;;;;;;;;;;;9.70;99.90;;;;;;5075519;28;841;-73
2022/10/07 03:30:03;;;;;;;;;;;9.70;99.90;;;;;;5071560;28;1193;-72
2022/10/07 03:32:29;;;;;;;;;;;9.60;99.90;;;;;;5065078;28;1213;-72
2022/10/07 03:34:55;;;;;;;;;;;9.60;99.90;;;;;;5075253;28;1913;-72
2022/10/07 03:37:22;;;;;;;;;;;9.60;99.90;;;;;;5092909;28;964;-73
2022/10/07 03:39:47;;;;;;;;;;;9.50;99.90;;;;;;5092996;28;1039;-72
2022/10/07 03:42:13;;;;;;;;;;;9.40;99.90;;;;;;5074777;28;1226;-72
2022/10/07 03:44:39;;;;;;;;;;;9.40;99.90;;;;;;5074284;28;1613;-72
2022/10/07 03:47:07;;;;;;;;;;;9.30;99.90;;;;;;5057559;28;985;-72
2022/10/07 03:49:34;;;;;;;;;;;9.30;99.90;;;;;;5054567;28;1158;-72
2022/10/07 03:52:01;;;;;;;;;;;9.30;99.90;;;;;;5056136;28;1687;-72
2022/10/07 03:54:28;;;;;;;;;;;9.30;99.90;;;;;;5074849;28;869;-72
2022/10/07 03:56:54;;;;;;;;;;;9.30;99.90;;;;;;5075360;28;1910;-71
2022/10/07 03:59:20;;;;;;;;;;;9.20;99.90;;;;;;5070586;28;1166;-72
2022/10/07 04:01:47;;;;;;;;;;;9.20;99.90;;;;;;5054574;28;1292;-72
2022/10/07 04:04:13;;;;;;;;;;;9.20;99.90;;;;;;5054361;28;996;-72
2022/10/07 04:06:40;;;;;;;;;;;9.20;99.90;;;;;;5054947;28;1174;-72
2022/10/07 04:09:11;;;;;;;;;;;9.10;99.90;;;;;;5044437;28;1621;-72
2022/10/07 04:11:39;;;;;;;;;;;9.10;99.90;;;;;;5074256;28;903;-72
2022/10/07 04:14:05;;;;;;;;;;;9.10;99.90;;;;;;5074977;28;1204;-71
2022/10/07 04:16:32;;;;;;;;;;;9.00;99.90;;;;;;5092307;28;1978;-72
2022/10/07 04:18:58;;;;;;;;;;;9.00;99.90;;;;;;5070911;28;1198;-72
2022/10/07 04:21:25;;;;;;;;;;;9.00;99.90;;;;;;5054577;28;968;-72
2022/10/07 04:23:51;;;;;;;;;;;9.00;99.90;;;;;;5054446;28;980;-72
2022/10/07 04:26:17;;;;;;;;;;;9.00;99.90;;;;;;5087427;28;1174;-72
2022/10/07 04:28:47;;;;;;;;;;;9.00;99.90;;;;;;5074749;28;1016;-72
2022/10/07 04:31:17;;;;;;;;;;;9.00;99.90;;;;;;5074610;28;979;-72
2022/10/07 04:33:45;;;;;;;;;;;9.00;99.90;;;;;;5073656;28;1078;-72
2022/10/07 04:36:14;;;;;;;;;;;9.00;99.90;;;;;;5074660;28;1965;-72
2022/10/07 04:38:56;;;;;;;;;;;9.00;99.90;;;;;;5074482;28;1003;-72
2022/10/07 04:41:25;;;;;;;;;;;9.00;99.90;;;;;;5073997;28;813;-72
2022/10/07 04:43:52;;;;;;;;;;;9.00;99.90;;;;;;5073768;28;1335;-72
2022/10/07 04:46:18;;;;;;;;;;;9.00;99.90;;;;;;5057267;28;977;-72
2022/10/07 04:48:50;;;;;;;;;;;9.00;99.90;;;;;;5054175;28;1321;-72
2022/10/07 04:51:21;;;;;;;;;;;9.00;99.90;;;;;;5057768;28;1203;-72
2022/10/07 04:53:51;;;;;;;;;;;9.00;99.90;;;;;;5073608;28;1000;-72
2022/10/07 04:56:18;;;;;;;;;;;9.00;99.90;;;;;;5074496;28;1910;-72
2022/10/07 04:58:44;;;;;;;;;;;9.00;99.90;;;;;;5094369;28;1074;-72
2022/10/07 05:01:10;;;;;;;;;;;9.00;99.90;;;;;;5095050;28;1202;-72
2022/10/07 05:03:40;;;;;;;;;;;9.00;99.90;;;;;;5077915;28;1562;-72
2022/10/07 05:06:07;;;;;;;;;;;9.00;99.90;;;;;;5078171;28;981;-72
2022/10/07 05:08:34;;;;;;;;;;;9.00;99.90;;;;;;5074991;28;1604;-72
2022/10/07 05:11:01;;;;;;;;;;;9.00;99.90;;;;;;5077670;28;1304;-72
2022/10/07 05:13:30;;;;;;;;;;;9.10;99.90;;;;;;5069148;28;1286;-72
2022/10/07 05:15:58;;;;;;;;;;;9.00;99.90;;;;;;5066697;28;1977;-72
2022/10/07 05:18:25;;;;;;;;;;;9.00;99.90;;;;;;5064499;28;1365;-72
2022/10/07 05:20:54;;;;;;;;;;;9.00;99.90;;;;;;5086227;28;1227;-72
2022/10/07 05:23:23;;;;;;;;;;;8.90;99.90;;;;;;5065549;28;1220;-72
2022/10/07 05:25:57;;;;;;;;;;;8.90;99.90;;;;;;5085498;28;1234;-72
2022/10/07 05:28:22;;;;;;;;;;;9.00;99.90;;;;;;5063207;28;1227;-72
2022/10/07 05:30:48;;;;;;;;;;;8.90;99.90;;;;;;5056979;28;1032;-72
2022/10/07 05:33:15;;;;;;;;;;;8.90;99.90;;;;;;5075800;28;1115;-72
2022/10/07 05:35:45;;;;;;;;;;;8.90;99.90;;;;;;5076546;28;1910;-72
2022/10/07 05:38:11;;;;;;;;;;;8.90;99.90;;;;;;5095516;28;991;-72
2022/10/07 05:40:37;;;;;;;;;;;9.00;99.90;;;;;;5077628;28;1016;-72
2022/10/07 05:43:03;;;;;;;;;;;9.00;99.90;;;;;;5077245;28;992;-72
2022/10/07 05:45:30;;;;;;;;;;;9.00;99.90;;;;;;5067594;28;1632;-72
2022/10/07 05:47:57;;;;;;;;;;;9.00;99.90;;;;;;5062187;28;1212;-72
2022/10/07 05:50:23;;;;;;;;;;;9.00;99.90;;;;;;5056504;28;1020;-72
2022/10/07 05:52:50;;;;;;;;;;;9.10;99.90;;;;;;5056956;28;1028;-72
2022/10/07 05:55:17;;;;;;;;;;;9.10;99.90;;;;;;5073537;28;1910;-72
2022/10/07 05:57:44;;;;;;;;;;;9.10;99.90;;;;;;5074692;28;1091;-72
2022/10/07 06:00:11;;;;;;;;;;;9.20;99.90;;;;;;5076967;28;1222;-72
2022/10/07 06:02:47;;;;;;;;;;;9.20;99.90;;;;;;5076664;28;1161;-72
2022/10/07 06:05:13;;;;;;;;;;;9.30;99.90;;;;;;5076366;28;1028;-72
2022/10/07 06:07:39;;;;;;;;;;;9.30;99.90;;;;;;5059798;28;1102;-73
2022/10/07 06:13:06;;;;;;;;;;;9.30;99.90;;;;;;5074863;28;1198;-72
2022/10/07 06:15:32;;;;;;;;;;;9.30;99.90;;;;;;5076276;28;1914;-72
2022/10/07 06:17:59;;;;;;;;;;;9.40;99.90;;;;;;5075991;28;1058;-72
2022/10/07 06:20:26;;;;;;;;;;;9.30;99.90;;;;;;5056095;28;1171;-72
2022/10/07 06:22:54;;;;;;;;;;;9.40;99.90;;;;;;5056625;28;1028;-72
2022/10/07 06:25:20;;;;;;;;;;;9.50;99.90;;;;;;5055650;28;1040;-72
2022/10/07 06:27:47;;;;;;;;;;;9.50;99.90;;;;;;5056106;28;1083;-73
2022/10/07 06:30:13;;;;;;;;;;;9.60;99.90;;;;;;5072159;28;1348;-73
2022/10/07 06:32:39;;;;;;;;;;;9.70;99.90;;;;;;5075556;28;980;-72
2022/10/07 06:35:05;;;;;;;;;;;9.90;99.90;;;;;;5058853;28;1895;-72
2022/10/07 06:37:31;;;;;;;;;;;10.00;99.90;;;;;;5059686;28;1182;-72
2022/10/07 06:39:57;;;;;;;;;;;10.00;99.90;;;;;;5075606;28;864;-73
2022/10/07 06:42:23;;;;;;;;;;;10.10;99.90;;;;;;5076574;28;861;-73
2022/10/07 06:45:15;;;;;;;;;;;10.20;99.90;;;;;;5059510;28;1604;-72
2022/10/07 06:47:41;;;;;;;;;;;10.30;99.90;;;;;;5047524;28;1268;-72
2022/10/07 06:50:07;;;;;;;;;;;10.40;99.90;;;;;;5068366;28;1190;-72
2022/10/07 06:52:33;;;;;;;;;;;10.40;99.90;;;;;;5093793;28;890;-72
2022/10/07 06:54:59;;;;;;;;;;;10.30;99.90;;;;;;5075189;28;1964;-72
2022/10/07 06:57:28;;;;;;;;;;;10.40;99.90;;;;;;5075784;28;1463;-73
2022/10/07 06:59:54;;;;;;;;;;;10.50;99.90;;;;;;5093846;28;1015;-73
2022/10/07 07:02:20;;;;;;;;;;;10.50;99.90;;;;;;5075487;28;1028;-73
2022/10/07 07:04:47;;;;;;;;;;;10.50;99.90;;;;;;5093775;28;1157;-73
2022/10/07 07:07:12;;;;;;;;;;;10.60;99.90;;;;;;5093034;28;856;-73
2022/10/07 07:09:38;;;;;;;;;;;10.70;99.90;;;;;;5093841;28;1620;-73
2022/10/07 07:12:06;;;;;;;;;;;10.80;99.90;;;;;;5055225;28;1295;-73
2022/10/07 07:14:37;;;;;;;;;;;10.80;99.90;;;;;;5068393;28;1162;-72
2022/10/07 07:17:07;;;;;;;;;;;10.80;99.90;;;;;;5055717;28;1985;-72
2022/10/07 07:19:32;;;;;;;;;;;10.80;99.90;;;;;;5073303;28;1003;-72
2022/10/07 07:21:59;;;;;;;;;;;10.80;99.90;;;;;;5059339;28;1269;-72
2022/10/07 07:24:26;;;;;;;;;;;10.70;99.90;;;;;;5075369;28;1107;-73
2022/10/07 07:26:52;;;;;;;;;;;10.70;99.90;;;;;;5074923;28;806;-73
2022/10/07 07:29:19;;;;;;;;;;;10.80;99.90;;;;;;5057654;28;1608;-72
2022/10/07 07:31:50;;;;;;;;;;;10.80;99.90;;;;;;5058305;28;1178;-73
2022/10/07 07:34:19;;;;;;;;;;;10.90;99.90;;;;;;5058420;28;1103;-73
2022/10/07 07:36:46;;;;;;;;;;;11.00;99.90;;;;;;5074399;28;1906;-73
2022/10/07 07:39:14;;;;;;;;;;;11.10;99.90;;;;;;5071890;28;1114;-73
2022/10/07 07:41:45;;;;;;;;;;;11.20;99.90;;;;;;5058737;28;1028;-73
2022/10/07 07:44:14;;;;;;;;;;;11.10;99.90;;;;;;5073693;28;1628;-74
2022/10/07 07:46:42;;;;;;;;;;;11.20;99.90;;;;;;5093276;28;1015;-73
2022/10/07 07:49:09;;;;;;;;;;;11.20;99.90;;;;;;5071263;28;1134;-73
2022/10/07 07:51:37;;;;;;;;;;;11.20;99.90;;;;;;5054269;28;1079;-73
2022/10/07 07:54:03;;;;;;;;;;;11.20;99.90;;;;;;5038246;28;1048;-73
2022/10/07 07:56:31;;;;;;;;;;;11.20;99.90;;;;;;5072297;28;1933;-73
2022/10/07 07:58:58;;;;;;;;;;;11.30;99.90;;;;;;5069831;28;1143;-73
2022/10/07 08:01:24;;;;;;;;;;;11.30;99.90;;;;;;5071845;28;857;-73
2022/10/07 08:03:50;;;;;;;;;;;11.40;99.90;;;;;;5070864;28;1090;-74
2022/10/07 08:06:17;;;;;;;;;;;11.50;99.90;;;;;;5060099;28;1163;-73
2022/10/07 08:08:43;;;;;;;;;;;11.50;99.90;;;;;;5074508;28;1604;-74
2022/10/07 08:11:11;;;;;;;;;;;11.60;99.90;;;;;;5074236;28;1608;-73
2022/10/07 08:13:40;;;;;;;;;;;11.70;99.90;;;;;;5074520;28;1039;-74
2022/10/07 08:16:07;;;;;;;;;;;11.90;99.90;;;;;;5074201;28;1995;-74
2022/10/07 08:18:33;;;;;;;;;;;12.10;99.90;;;;;;5092341;28;908;-73
2022/10/07 08:21:00;;;;;;;;;;;12.20;99.90;;;;;;5074252;28;1107;-74
2022/10/07 08:23:28;;;;;;;;;;;12.40;99.90;;;;;;5091159;28;1142;-73
2022/10/07 08:25:55;;;;;;;;;;;12.40;99.90;;;;;;5074278;28;1016;-73
2022/10/07 08:28:22;;;;;;;;;;;12.30;99.90;;;;;;5074219;28;885;-74
2022/10/07 08:30:50;;;;;;;;;;;12.40;99.90;;;;;;5071113;28;1213;-74
2022/10/07 08:33:17;;;;;;;;;;;12.40;99.90;;;;;;5077673;28;1165;-74
2022/10/07 08:35:47;;;;;;;;;;;12.50;99.90;;;;;;5096372;28;1910;-74
2022/10/07 08:38:14;;;;;;;;;;;12.60;99.90;;;;;;5091914;28;1313;-73
2022/10/07 08:40:49;;;;;;;;;;;12.60;99.90;;;;;;5068655;28;1519;-74
2022/10/07 08:43:15;;;;;;;;;;;12.70;99.90;;;;;;5083659;28;1188;-74
2022/10/07 08:45:41;;;;;;;;;;;12.80;99.90;;;;;;5095216;28;1597;-74
2022/10/07 08:48:10;;;;;;;;;;;12.90;99.90;;;;;;5096156;28;1213;-74
2022/10/07 08:50:44;;;;;;;;;;;13.00;99.90;;;;;;5082936;28;1224;-75
2022/10/07 08:53:14;;;;;;;;;;;13.20;99.90;;;;;;5096242;28;1000;-74
2022/10/07 08:55:43;;;;;;;;;;;13.40;99.90;;;;;;5096659;28;1972;-75
2022/10/07 08:58:29;;;;;;;;;;;13.50;99.90;;;;;;5096358;28;1118;-74
2022/10/07 09:01:08;;;;;;;;;;;13.60;99.90;;;;;;5095610;28;1138;-73
2022/10/07 09:03:34;;;;;;;;;;;13.60;99.90;;;;;;5092538;28;1243;-75
2022/10/07 09:06:03;;;;;;;;;;;13.90;99.90;;;;;;5080467;28;1254;-74
2022/10/07 09:08:33;;;;;;;;;;;13.90;99.90;;;;;;5086561;28;1314;-74
2022/10/07 09:11:14;;;;;;;;;;;14.10;99.90;;;;;;5080504;28;1358;-74
2022/10/07 09:13:41;;;;;;;;;;;14.40;99.90;;;;;;5075571;28;1028;-74
2022/10/07 09:16:16;;;;;;;;;;;14.60;99.90;;;;;;5057599;28;1973;-74
2022/10/07 09:18:49;;;;;;;;;;;14.70;99.90;;;;;;5095102;28;1187;-75
2022/10/07 09:21:22;;;;;;;;;;;14.80;99.90;;;;;;5077016;28;1087;-74
2022/10/07 09:23:53;;;;;;;;;;;14.80;99.90;;;;;;5095828;28;1174;-74
2022/10/07 09:26:19;;;;;;;;;;;14.50;99.90;;;;;;5095247;28;1229;-74
2022/10/07 09:28:44;;;;;;;;;;;14.30;99.90;;;;;;5095289;28;857;-75
2022/10/07 09:31:12;;;;;;;;;;;14.30;99.90;;;;;;5077919;28;893;-74
2022/10/07 09:33:41;;;;;;;;;;;14.50;99.90;;;;;;5095550;28;908;-74
2022/10/07 09:36:08;;;;;;;;;;;14.40;99.90;;;;;;5094416;28;1919;-74
2022/10/07 09:38:35;;;;;;;;;;;14.60;99.90;;;;;;5077738;28;924;-75
2022/10/07 09:41:18;;;;;;;;;;;14.50;99.90;;;;;;5095620;28;991;-74
2022/10/07 09:43:57;;;;;;;;;;;14.60;99.90;;;;;;5090253;28;1334;-73
2022/10/07 09:46:27;;;;;;;;;;;14.70;99.90;;;;;;5057143;28;1012;-74
2022/10/07 09:48:53;;;;;;;;;;;14.60;99.90;;;;;;5074371;28;889;-75
2022/10/07 09:51:25;;;;;;;;;;;14.70;99.90;;;;;;5075483;28;972;-75
2022/10/07 09:53:56;;;;;;;;;;;14.90;99.90;;;;;;5092924;28;1256;-75
2022/10/07 09:56:36;;;;;;;;;;;15.20;99.90;;;;;;5076166;28;2071;-75
2022/10/07 09:59:16;;;;;;;;;;;15.30;99.90;;;;;;5095093;28;1146;-75
2022/10/07 10:01:49;;;;;;;;;;;15.80;99.90;;;;;;5095039;28;1169;-75
2022/10/07 10:04:15;;;;;;;;;;;16.30;99.90;;;;;;5093904;28;1155;-74
2022/10/07 10:06:48;;;;;;;;;;;16.40;99.90;;;;;;5095302;28;1023;-73
2022/10/07 10:09:18;;;;;;;;;;;16.50;99.90;;;;;;5077072;28;1376;-75
2022/10/07 10:11:44;;;;;;;;;;;16.60;99.90;;;;;;5075225;28;1190;-74
2022/10/07 10:14:26;;;;;;;;;;;17.00;99.90;;;;;;5095213;28;1296;-74
2022/10/07 10:16:51;;;;;;;;;;;16.80;99.90;;;;;;5095270;28;1918;-75
2022/10/07 10:19:24;;;;;;;;;;;17.30;99.90;;;;;;5093425;28;1174;-75
2022/10/07 10:21:52;;;;;;;;;;;17.40;99.90;;;;;;5095060;28;1079;-75
2022/10/07 10:26:24;;;;;;;;;;;17.80;99.90;;;;;;5094249;28;872;-75
2022/10/07 10:27:15;;;;;;;;;;;17.90;99.90;;;;;;5094314;28;1122;-76
2022/10/07 10:29:47;;;;;;;;;;;18.20;99.90;;;;;;5094835;28;1051;-76
2022/10/07 10:32:29;;;;;;;;;;;18.30;99.90;;;;;;5094107;28;1062;-75
2022/10/07 10:34:55;;;;;;;;;;;18.00;99.90;;;;;;5094508;28;1908;-76
2022/10/07 10:37:23;;;;;;;;;;;18.30;99.90;;;;;;5093197;28;1224;-75
2022/10/07 10:39:49;;;;;;;;;;;18.60;99.90;;;;;;5093688;28;1019;-75
2022/10/07 10:42:19;;;;;;;;;;;18.60;99.90;;;;;;5094390;28;1160;-76
2022/10/07 10:44:45;;;;;;;;;;;19.40;99.90;;;;;;5076005;28;1735;-75
2022/10/07 10:47:32;;;;;;;;;;;19.00;99.90;;;;;;5092869;28;1010;-75
2022/10/07 10:50:09;;;;;;;;;;;18.50;99.90;;;;;;5094150;28;1731;-75
2022/10/07 10:52:44;;;;;;;;;;;17.90;99.90;;;;;;5075651;28;908;-75
2022/10/07 10:55:34;;;;;;;;;;;17.40;99.90;;;;;;5092399;28;1926;-75
2022/10/07 10:58:00;;;;;;;;;;;17.00;99.90;;;;;;5094444;28;1177;-75
2022/10/07 11:00:31;;;;;;;;;;;16.60;99.90;;;;;;5093500;28;1039;-75
2022/10/07 11:03:16;;;;;;;;;;;16.60;99.90;;;;;;5086563;28;1254;-76
2022/10/07 11:05:42;;;;;;;;;;;17.60;99.90;;;;;;5083242;28;1290;-74
2022/10/07 11:08:16;;;;;;;;;;;18.70;99.90;;;;;;5081670;28;1207;-75
2022/10/07 11:11:00;;;;;;;;;;;19.00;99.90;;;;;;5066744;28;1671;-75
2022/10/07 11:13:31;;;;;;;;;;;18.90;99.90;;;;;;5083260;28;1339;-75
2022/10/07 11:16:00;;;;;;;;;;;18.80;99.90;;;;;;5071971;28;1987;-76
2022/10/07 11:18:26;;;;;;;;;;;19.00;99.90;;;;;;5073117;28;904;-75
2022/10/07 11:20:53;;;;;;;;;;;18.90;99.90;;;;;;5078442;28;1202;-75
2022/10/07 11:23:30;;;;;;;;;;;19.30;99.90;;;;;;5093670;28;1235;-75
2022/10/07 11:26:00;;;;;;;;;;;19.30;99.90;;;;;;5090497;28;1231;-75
2022/10/07 11:28:27;;;;;;;;;;;19.10;99.90;;;;;;5081590;28;1136;-75
2022/10/07 11:31:00;;;;;;;;;;;19.10;99.90;;;;;;5084434;28;1148;-76
2022/10/07 11:33:33;;;;;;;;;;;18.70;99.90;;;;;;5083799;28;1227;-75
2022/10/07 11:36:02;;;;;;;;;;;18.60;99.90;;;;;;5089395;28;1992;-74
2022/10/07 11:38:32;;;;;;;;;;;18.70;99.90;;;;;;5065746;28;2268;-75
2022/10/07 11:41:06;;;;;;;;;;;18.60;99.90;;;;;;5065997;28;1231;-75
2022/10/07 11:43:44;;;;;;;;;;;18.60;99.90;;;;;;5089747;28;1674;-75
2022/10/07 11:46:21;;;;;;;;;;;18.50;99.90;;;;;;5073020;28;1160;-75
2022/10/07 11:48:48;;;;;;;;;;;18.40;99.90;;;;;;5088797;28;1142;-75
2022/10/07 11:51:20;;;;;;;;;;;18.20;99.90;;;;;;5093044;28;818;-75
2022/10/07 11:53:45;;;;;;;;;;;18.10;99.90;;;;;;5083297;28;1379;-75
2022/10/07 11:56:20;;;;;;;;;;;18.50;99.90;;;;;;5055738;28;1959;-76
2022/10/07 11:58:54;;;;;;;;;;;18.20;99.90;;;;;;5054900;28;1219;-76
2022/10/07 12:01:24;;;;;;;;;;;18.40;99.90;;;;;;5075310;28;1282;-76
2022/10/07 12:03:51;;;;;;;;;;;18.20;99.90;;;;;;5072008;28;1067;-76
2022/10/07 12:06:17;;;;;;;;;;;18.00;99.90;;;;;;5087284;28;1279;-76
2022/10/07 12:08:43;;;;;;;;;;;17.40;99.90;;;;;;5089326;28;1658;-77
2022/10/07 12:11:10;;;;;;;;;;;17.80;99.90;;;;;;5090070;28;1676;-76
2022/10/07 12:13:38;;;;;;;;;;;18.10;99.90;;;;;;5074578;28;1173;-76
2022/10/07 12:16:22;;;;;;;;;;;17.70;99.90;;;;;;5092267;28;1984;-77
2022/10/07 12:19:03;;;;;;;;;;;17.70;99.90;;;;;;5092112;28;1116;-76
2022/10/07 12:21:30;;;;;;;;;;;17.70;99.90;;;;;;5075002;28;841;-76
2022/10/07 12:24:08;;;;;;;;;;;17.70;99.90;;;;;;5069915;28;1216;-76
2022/10/07 12:26:34;;;;;;;;;;;18.10;99.90;;;;;;5072665;28;972;-76
2022/10/07 12:29:00;;;;;;;;;;;17.90;99.90;;;;;;5072641;28;858;-75
2022/10/07 12:31:29;;;;;;;;;;;18.10;99.90;;;;;;5074999;28;1162;-76
2022/10/07 12:33:56;;;;;;;;;;;17.90;99.90;;;;;;5074347;28;1040;-76
2022/10/07 12:36:23;;;;;;;;;;;17.50;99.90;;;;;;5092135;28;1967;-76
2022/10/07 12:38:55;;;;;;;;;;;17.10;99.90;;;;;;5066500;28;1310;-76
2022/10/07 12:41:23;;;;;;;;;;;16.90;99.90;;;;;;5064928;28;1286;-76
2022/10/07 12:43:53;;;;;;;;;;;16.80;99.90;;;;;;5082729;28;1374;-76
2022/10/07 12:46:21;;;;;;;;;;;16.70;99.90;;;;;;5053248;28;2028;-76
2022/10/07 12:48:57;;;;;;;;;;;16.60;99.90;;;;;;5072882;28;1178;-77
2022/10/07 12:51:26;;;;;;;;;;;16.50;99.90;;;;;;5092636;28;1000;-76
2022/10/07 12:53:52;;;;;;;;;;;16.90;99.90;;;;;;5091566;28;987;-76
2022/10/07 12:56:36;;;;;;;;;;;17.00;99.90;;;;;;5092640;28;1971;-76
2022/10/07 13:02:06;;;;;;;;;;;17.40;99.90;;;;;;5092409;28;1063;-75
2022/10/07 13:04:53;;;;;;;;;;;17.40;99.90;;;;;;5059406;28;1289;-76
2022/10/07 13:07:19;;;;;;;;;;;17.30;99.90;;;;;;5061283;28;1202;-76
2022/10/07 13:09:54;;;;;;;;;;;17.70;99.90;;;;;;5075923;28;1647;-76
2022/10/07 13:12:24;;;;;;;;;;;17.40;99.90;;;;;;5072510;28;1120;-76
2022/10/07 13:14:50;;;;;;;;;;;17.20;99.90;;;;;;5071421;28;1113;-75
2022/10/07 13:17:38;;;;;;;;;;;17.00;99.90;;;;;;5067065;28;1902;-77
2022/10/07 13:20:16;;;;;;;;;;;16.90;99.90;;;;;;5074689;28;1903;-76
2022/10/07 13:22:45;;;;;;;;;;;16.90;99.90;;;;;;5057619;28;1130;-77
2022/10/07 13:25:10;;;;;;;;;;;16.90;99.90;;;;;;5084547;28;1166;-76
2022/10/07 13:27:37;;;;;;;;;;;16.90;99.90;;;;;;5095132;28;1106;-76
2022/10/07 13:30:04;;;;;;;;;;;16.80;99.90;;;;;;5095973;28;1011;-76
2022/10/07 13:32:31;;;;;;;;;;;16.90;99.90;;;;;;5095931;28;964;-76
2022/10/07 13:34:58;;;;;;;;;;;16.90;99.90;;;;;;5085407;28;3577;-76
2022/10/07 13:37:24;;;;;;;;;;;16.80;99.90;;;;;;5089410;28;3618;-76
2022/10/07 13:39:50;;;;;;;;;;;16.80;99.90;;;;;;5075040;28;856;-76
2022/10/07 13:42:16;;;;;;;;;;;17.00;99.90;;;;;;5074532;28;3754;-76
2022/10/07 13:44:42;;;;;;;;;;;17.50;99.90;;;;;;5090204;28;1406;-76
2022/10/07 13:47:16;;;;;;;;;;;17.50;99.90;;;;;;5071674;28;1286;-76
2022/10/07 13:49:43;;;;;;;;;;;17.30;99.90;;;;;;5086345;28;1269;-76
2022/10/07 13:52:19;;;;;;;;;;;17.10;99.90;;;;;;5087729;28;1174;-76
2022/10/07 13:54:48;;;;;;;;;;;17.00;99.90;;;;;;5075596;28;972;-76
2022/10/07 13:57:14;;;;;;;;;;;16.70;99.90;;;;;;5082239;28;1946;-76
2022/10/07 13:59:40;;;;;;;;;;;16.60;99.90;;;;;;5084844;28;1214;-76
2022/10/07 14:02:09;;;;;;;;;;;16.70;99.90;;;;;;5094373;28;824;-77
2022/10/07 14:04:34;;;;;;;;;;;16.80;99.90;;;;;;5095236;28;855;-76
2022/10/07 14:07:07;;;;;;;;;;;16.90;99.90;;;;;;5094982;28;871;-77
2022/10/07 14:09:35;;;;;;;;;;;16.90;99.90;;;;;;5089642;28;1600;-76
2022/10/07 14:12:03;;;;;;;;;;;16.80;99.90;;;;;;5074959;28;1150;-76
2022/10/07 14:14:31;;;;;;;;;;;16.70;99.90;;;;;;5056845;28;1136;-76
2022/10/07 14:16:58;;;;;;;;;;;16.70;99.90;;;;;;5074505;28;1947;-75
2022/10/07 14:19:27;;;;;;;;;;;16.80;99.90;;;;;;5094747;28;1224;-76
2022/10/07 14:21:53;;;;;;;;;;;16.90;99.90;;;;;;5095031;28;1027;-76
2022/10/07 14:24:19;;;;;;;;;;;16.80;99.90;;;;;;5091042;28;1235;-76
2022/10/07 14:26:45;;;;;;;;;;;16.70;99.90;;;;;;5087339;28;1203;-76
2022/10/07 14:29:21;;;;;;;;;;;16.60;99.90;;;;;;5094746;28;968;-76
2022/10/07 14:37:26;;;;;;;;;;;16.40;99.90;;;;;;5055486;28;1906;-76
2022/10/07 14:39:52;;;;;;;;;;;16.40;99.90;;;;;;5074728;28;849;-76
2022/10/07 14:42:20;;;;;;;;;;;16.40;99.90;;;;;;5074471;28;1071;-73
2022/10/07 14:44:46;;;;;;;;;;;16.30;99.90;;;;;;5064093;28;1733;-75
2022/10/07 14:47:23;;;;;;;;;;;16.30;99.90;;;;;;5094614;28;952;-74
2022/10/07 14:49:50;;;;;;;;;;;16.30;99.90;;;;;;5094686;28;1055;-74
2022/10/07 14:52:20;;;;;;;;;;;16.30;99.90;;;;;;5093597;28;1036;-76
2022/10/07 14:54:47;;;;;;;;;;;16.30;99.90;;;;;;5087372;28;3211;-75
2022/10/07 14:57:13;;;;;;;;;;;16.30;99.90;;;;;;5054397;28;3348;-76
2022/10/07 14:59:38;;;;;;;;;;;16.30;99.90;;;;;;5073148;28;1000;-76
2022/10/07 15:02:04;;;;;;;;;;;16.30;99.90;;;;;;5065373;28;3443;-75